Time;durP1;ratioP1;P1;durP2;ratioP2;P2;SDS_P1;SDS_P2;PMS_P1;PMS_P2;Temp;Humidity;BMP_temperature;BMP_pressure;BME280_temperature;BME280_humidity;BME280_pressure;Samples;Min_cycle;Max_cycle;Signal;HPM_P1;HPM_P2
2023/12/01 00:02:05;;;;;;;26.77;14.68;;;1.90;99.90;;;;;;5057657;28;20052;-64
2023/12/01 00:04:30;;;;;;;28.77;15.43;;;1.90;99.90;;;;;;5057765;28;20036;-64
2023/12/01 00:06:56;;;;;;;29.27;14.90;;;1.90;99.90;;;;;;5065486;28;20048;-64
2023/12/01 00:09:22;;;;;;;29.20;15.45;;;1.80;99.90;;;;;;5063189;28;20413;-64
2023/12/01 00:11:47;;;;;;;28.13;15.52;;;1.80;99.90;;;;;;5059285;28;20053;-63
2023/12/01 00:14:13;;;;;;;27.60;14.55;;;1.80;99.90;;;;;;5057578;28;20536;-64
2023/12/01 00:16:39;;;;;;;26.77;14.38;;;1.80;99.90;;;;;;5058980;28;20105;-63
2023/12/01 00:19:04;;;;;;;28.13;15.25;;;1.80;99.90;;;;;;5069353;28;20025;-64
2023/12/01 00:21:30;;;;;;;26.17;14.35;;;1.80;99.90;;;;;;5069515;28;20246;-63
2023/12/01 00:23:56;;;;;;;26.85;14.45;;;1.80;99.90;;;;;;5066161;28;20451;-64
2023/12/01 00:26:21;;;;;;;27.02;15.30;;;1.80;99.90;;;;;;5064251;28;20054;-64
2023/12/01 00:28:47;;;;;;;26.58;14.68;;;1.80;99.90;;;;;;5067235;28;20044;-64
2023/12/01 00:31:12;;;;;;;27.38;14.15;;;1.80;99.90;;;;;;5069328;28;20059;-64
2023/12/01 00:33:38;;;;;;;27.77;14.43;;;1.80;99.90;;;;;;5059038;28;20045;-64
2023/12/01 00:36:04;;;;;;;25.73;13.55;;;1.80;99.90;;;;;;5067625;28;20063;-63
2023/12/01 00:38:30;;;;;;;26.13;14.60;;;1.80;99.90;;;;;;5061103;28;20044;-64
2023/12/01 00:40:55;;;;;;;28.27;15.27;;;1.80;99.90;;;;;;5066880;28;20406;-64
2023/12/01 00:43:21;;;;;;;25.70;14.85;;;1.70;99.90;;;;;;5065745;28;20059;-64
2023/12/01 00:45:47;;;;;;;28.75;14.68;;;1.70;99.90;;;;;;5060960;28;20037;-63
2023/12/01 00:48:12;;;;;;;28.42;14.50;;;1.70;99.90;;;;;;5067853;28;20705;-64
2023/12/01 00:50:39;;;;;;;27.02;14.98;;;1.70;99.90;;;;;;5051544;28;20093;-63
2023/12/01 00:53:05;;;;;;;27.27;14.27;;;1.70;99.90;;;;;;5083827;28;20483;-64
2023/12/01 00:55:31;;;;;;;29.30;16.00;;;1.70;99.90;;;;;;5058626;28;20056;-64
2023/12/01 00:57:56;;;;;;;29.63;14.95;;;1.70;99.90;;;;;;5059124;28;20051;-64
2023/12/01 01:00:23;;;;;;;29.15;16.33;;;1.70;99.90;;;;;;5060602;28;20040;-64
2023/12/01 01:02:50;;;;;;;29.77;14.98;;;1.70;99.90;;;;;;5067993;28;20052;-64
2023/12/01 01:05:16;;;;;;;29.23;14.95;;;1.70;99.90;;;;;;5065148;28;20048;-63
2023/12/01 01:07:42;;;;;;;29.35;15.55;;;1.70;99.90;;;;;;5062892;28;20051;-64
2023/12/01 01:10:08;;;;;;;30.38;15.38;;;1.60;99.90;;;;;;5059450;28;20048;-63
2023/12/01 01:12:34;;;;;;;27.88;15.48;;;1.70;99.90;;;;;;5059239;28;20036;-63
2023/12/01 01:15:03;;;;;;;28.13;14.80;;;1.70;99.90;;;;;;5058498;28;20103;-64
2023/12/01 01:17:29;;;;;;;30.60;15.95;;;1.70;99.90;;;;;;5088939;28;20071;-66
2023/12/01 01:19:55;;;;;;;31.98;16.05;;;1.70;99.90;;;;;;5040626;28;20048;-64
2023/12/01 01:22:21;;;;;;;26.92;15.30;;;1.70;99.90;;;;;;5058959;28;20041;-64
2023/12/01 01:24:46;;;;;;;29.27;15.15;;;1.70;99.90;;;;;;5066462;28;20132;-63
2023/12/01 01:27:12;;;;;;;31.15;15.35;;;1.70;99.90;;;;;;5060498;28;20189;-64
2023/12/01 01:29:38;;;;;;;31.15;15.88;;;1.70;99.90;;;;;;5058543;28;20048;-63
2023/12/01 01:32:04;;;;;;;30.38;15.02;;;1.70;99.90;;;;;;5082346;28;20495;-64
2023/12/01 01:34:30;;;;;;;29.70;16.05;;;1.60;99.90;;;;;;5069963;28;20060;-64
2023/12/01 01:36:56;;;;;;;27.20;13.98;;;1.60;99.90;;;;;;5063354;28;20040;-64
2023/12/01 01:39:22;;;;;;;28.67;15.05;;;1.60;99.90;;;;;;5063998;28;20489;-64
2023/12/01 01:41:47;;;;;;;27.10;14.13;;;1.60;99.90;;;;;;5057804;28;20040;-64
2023/12/01 01:44:13;;;;;;;28.40;14.93;;;1.50;99.90;;;;;;5060755;28;20048;-64
2023/12/01 01:46:39;;;;;;;26.92;13.93;;;1.50;99.90;;;;;;5058883;28;20459;-64
2023/12/01 01:49:05;;;;;;;26.63;14.23;;;1.50;99.90;;;;;;5062835;28;21217;-64
2023/12/01 01:51:34;;;;;;;24.80;13.32;;;1.40;99.90;;;;;;5066086;28;20052;-64
2023/12/01 01:54:00;;;;;;;25.45;13.45;;;1.40;99.90;;;;;;5060872;28;20071;-63
2023/12/01 01:56:29;;;;;;;25.42;13.10;;;1.40;99.90;;;;;;5054988;28;20183;-64
2023/12/01 01:58:54;;;;;;;26.23;13.80;;;1.40;99.90;;;;;;5058739;28;20083;-64
2023/12/01 02:01:22;;;;;;;23.98;12.73;;;1.40;99.90;;;;;;5057473;28;20525;-64
2023/12/01 02:03:47;;;;;;;23.48;12.93;;;1.40;99.90;;;;;;5066647;28;20039;-64
2023/12/01 02:06:13;;;;;;;25.60;13.43;;;1.40;99.90;;;;;;5060350;28;20032;-64
2023/12/01 02:08:39;;;;;;;22.30;12.90;;;1.40;99.90;;;;;;5065788;28;20043;-64
2023/12/01 02:11:05;;;;;;;24.20;13.43;;;1.40;99.90;;;;;;5055435;28;20503;-64
2023/12/01 02:13:31;;;;;;;25.48;12.98;;;1.40;99.90;;;;;;5059476;28;20080;-64
2023/12/01 02:15:59;;;;;;;25.15;13.23;;;1.40;99.90;;;;;;5064477;28;20390;-63
2023/12/01 02:18:30;;;;;;;21.60;13.43;;;1.40;99.90;;;;;;5059051;28;20167;-64
2023/12/01 02:20:57;;;;;;;22.20;12.10;;;1.30;99.90;;;;;;5064128;28;20048;-64
2023/12/01 02:23:23;;;;;;;21.85;11.77;;;1.30;99.90;;;;;;5062001;28;20145;-64
2023/12/01 02:25:49;;;;;;;22.17;11.57;;;1.30;99.90;;;;;;5062034;28;20380;-64
2023/12/01 02:28:16;;;;;;;20.95;12.35;;;1.20;99.90;;;;;;5063072;28;20036;-64
2023/12/01 02:30:47;;;;;;;21.23;12.20;;;1.20;99.90;;;;;;5063802;28;20048;-64
2023/12/01 02:33:15;;;;;;;21.92;12.20;;;1.20;99.90;;;;;;5068055;28;20091;-65
2023/12/01 02:35:47;;;;;;;20.02;11.85;;;1.10;99.90;;;;;;5069132;28;20044;-65
2023/12/01 02:38:14;;;;;;;22.42;12.48;;;1.10;99.90;;;;;;5082448;28;20052;-64
2023/12/01 02:40:49;;;;;;;21.42;12.48;;;1.00;99.90;;;;;;5064727;28;20449;-64
2023/12/01 02:43:16;;;;;;;20.27;11.75;;;1.00;99.90;;;;;;5066271;28;20051;-63
2023/12/01 02:45:42;;;;;;;24.13;12.32;;;1.00;99.90;;;;;;5067032;28;20503;-64
2023/12/01 02:48:08;;;;;;;21.20;11.98;;;1.00;99.90;;;;;;5062978;28;20097;-64
2023/12/01 02:50:34;;;;;;;24.00;13.38;;;1.00;99.90;;;;;;5062319;28;20403;-64
2023/12/01 02:53:09;;;;;;;22.35;13.52;;;1.00;99.90;;;;;;5064457;28;20449;-64
2023/12/01 02:55:35;;;;;;;26.88;12.55;;;1.00;99.90;;;;;;5064844;28;20668;-64
2023/12/01 02:58:01;;;;;;;23.23;12.52;;;1.00;99.90;;;;;;5062289;28;20051;-64
2023/12/01 03:00:27;;;;;;;24.98;13.18;;;1.00;99.90;;;;;;5056691;28;20178;-63
2023/12/01 03:02:52;;;;;;;25.42;13.93;;;1.00;99.90;;;;;;5055008;28;20075;-64
2023/12/01 03:05:19;;;;;;;25.83;13.73;;;1.00;99.90;;;;;;5062833;28;20044;-64
2023/12/01 03:07:46;;;;;;;24.55;13.70;;;1.00;99.90;;;;;;5066630;28;20040;-64
2023/12/01 03:10:12;;;;;;;24.15;12.32;;;1.00;99.90;;;;;;5092847;28;20198;-64
2023/12/01 03:12:39;;;;;;;23.73;12.55;;;1.00;99.90;;;;;;5064271;28;20056;-64
2023/12/01 03:15:09;;;;;;;24.05;12.45;;;0.90;99.90;;;;;;5063706;28;20051;-63
2023/12/01 03:17:35;;;;;;;24.33;12.50;;;0.90;99.90;;;;;;5065498;28;20063;-70
2023/12/01 03:20:01;;;;;;;26.25;12.90;;;0.80;99.90;;;;;;5065499;28;20033;-64
2023/12/01 03:22:27;;;;;;;22.98;12.45;;;0.80;99.90;;;;;;5066230;28;20495;-63
2023/12/01 03:24:53;;;;;;;24.55;12.65;;;0.80;99.90;;;;;;5065733;28;20420;-64
2023/12/01 03:27:19;;;;;;;24.17;12.52;;;0.80;99.90;;;;;;5064752;28;20040;-63
2023/12/01 03:29:46;;;;;;;25.65;13.13;;;0.80;99.90;;;;;;5063935;28;20045;-64
2023/12/01 03:32:11;;;;;;;24.90;12.20;;;0.70;99.90;;;;;;5066357;28;20052;-64
2023/12/01 03:34:37;;;;;;;22.35;12.45;;;0.70;99.90;;;;;;5065327;28;20419;-64
2023/12/01 03:37:03;;;;;;;24.90;12.68;;;0.70;99.90;;;;;;5063273;28;20136;-64
2023/12/01 03:39:30;;;;;;;22.02;11.45;;;0.70;99.90;;;;;;5065473;28;20061;-64
2023/12/01 03:41:56;;;;;;;20.45;11.43;;;0.60;99.90;;;;;;5065723;28;20391;-63
2023/12/01 03:44:22;;;;;;;20.70;11.38;;;0.60;99.90;;;;;;5065631;28;20048;-64
2023/12/01 03:46:47;;;;;;;20.67;12.10;;;0.50;99.90;;;;;;5088741;28;20041;-62
2023/12/01 03:49:13;;;;;;;21.48;12.32;;;0.50;99.90;;;;;;5066650;28;20090;-64
2023/12/01 03:51:39;;;;;;;21.85;11.40;;;0.60;99.90;;;;;;5046804;28;20392;-64
2023/12/01 03:54:05;;;;;;;19.30;11.60;;;0.60;99.90;;;;;;5066431;28;20182;-63
2023/12/01 03:56:31;;;;;;;18.50;10.85;;;0.50;99.90;;;;;;5096677;28;20479;-63
2023/12/01 03:58:56;;;;;;;17.42;10.63;;;0.50;99.90;;;;;;5066251;28;20186;-64
2023/12/01 04:01:28;;;;;;;19.15;11.05;;;0.50;99.90;;;;;;5064408;28;20045;-64
2023/12/01 04:03:54;;;;;;;19.40;10.60;;;0.40;99.90;;;;;;5066396;28;20066;-64
2023/12/01 04:06:20;;;;;;;16.95;10.32;;;0.40;99.90;;;;;;5070424;28;20040;-64
2023/12/01 04:08:45;;;;;;;16.55;10.73;;;0.40;99.90;;;;;;5070901;28;20041;-64
2023/12/01 04:11:11;;;;;;;17.35;9.93;;;0.40;99.90;;;;;;5067352;28;20060;-65
2023/12/01 04:13:37;;;;;;;17.33;9.50;;;0.40;99.90;;;;;;5060864;28;20613;-64
2023/12/01 04:16:03;;;;;;;16.75;10.10;;;0.30;99.90;;;;;;5066343;28;20048;-64
2023/12/01 04:18:29;;;;;;;17.88;10.80;;;0.30;99.90;;;;;;5070367;28;20120;-64
2023/12/01 04:20:55;;;;;;;16.65;10.05;;;0.30;99.90;;;;;;5070030;28;20140;-64
2023/12/01 04:23:20;;;;;;;17.60;10.73;;;0.20;99.90;;;;;;5064390;28;20039;-64
2023/12/01 04:25:47;;;;;;;17.92;10.75;;;0.20;99.90;;;;;;5057861;28;20128;-63
2023/12/01 04:28:13;;;;;;;17.60;11.07;;;0.20;99.90;;;;;;5061804;28;20044;-63
2023/12/01 04:30:40;;;;;;;17.08;10.85;;;0.20;99.90;;;;;;5069166;28;20032;-67
2023/12/01 04:33:06;;;;;;;15.85;10.20;;;0.10;99.90;;;;;;5063297;28;20056;-64
2023/12/01 04:35:33;;;;;;;16.42;10.63;;;0.10;99.90;;;;;;5083873;28;20052;-63
2023/12/01 04:38:03;;;;;;;16.08;10.35;;;0.00;99.90;;;;;;5061170;28;20080;-63
2023/12/01 04:40:29;;;;;;;18.40;10.88;;;0.00;99.90;;;;;;5067629;28;20055;-64
2023/12/01 04:42:56;;;;;;;16.25;10.70;;;-0.10;99.90;;;;;;5065158;28;20044;-63
2023/12/01 04:45:30;;;;;;;17.02;11.00;;;-0.10;99.90;;;;;;5058633;28;20118;-63
2023/12/01 04:47:56;;;;;;;18.42;11.30;;;-0.10;99.90;;;;;;5060506;28;20039;-64
2023/12/01 04:50:26;;;;;;;18.42;11.48;;;-0.10;99.90;;;;;;5057697;28;20040;-63
2023/12/01 04:52:54;;;;;;;19.05;11.55;;;-0.10;99.90;;;;;;5059649;28;20402;-64
2023/12/01 04:55:22;;;;;;;19.35;11.65;;;-0.10;99.90;;;;;;5060182;28;20055;-64
2023/12/01 04:57:48;;;;;;;21.63;12.27;;;-0.10;99.90;;;;;;5051073;28;20041;-64
2023/12/01 05:00:22;;;;;;;20.45;13.10;;;-0.20;99.90;;;;;;5068247;28;20491;-63
2023/12/01 05:02:52;;;;;;;20.02;11.82;;;-0.20;99.90;;;;;;5055505;28;20750;-64
2023/12/01 05:05:22;;;;;;;19.73;12.25;;;-0.30;99.90;;;;;;5088362;28;20047;-63
2023/12/01 05:07:52;;;;;;;18.38;11.93;;;-0.30;99.90;;;;;;5066577;28;20051;-64
2023/12/01 05:10:22;;;;;;;20.58;12.05;;;-0.30;99.90;;;;;;5065585;28;20056;-64
2023/12/01 05:12:54;;;;;;;20.73;12.20;;;-0.30;99.90;;;;;;5059261;28;20468;-63
2023/12/01 05:15:24;;;;;;;19.15;12.00;;;-0.40;99.90;;;;;;5061200;28;20552;-65
2023/12/01 05:17:54;;;;;;;19.23;11.85;;;-0.40;99.90;;;;;;5060118;28;20043;-64
2023/12/01 05:20:21;;;;;;;19.17;12.05;;;-0.40;99.90;;;;;;5065404;28;20114;-63
2023/12/01 05:22:52;;;;;;;22.80;12.50;;;-0.40;99.90;;;;;;5064203;28;20040;-64
2023/12/01 05:25:19;;;;;;;21.15;12.57;;;-0.40;99.90;;;;;;5063735;28;20036;-64
2023/12/01 05:27:52;;;;;;;20.13;12.40;;;-0.50;99.90;;;;;;5060578;28;20455;-64
2023/12/01 05:30:35;;;;;;;22.08;13.25;;;-0.40;99.90;;;;;;5075558;28;20131;-63
2023/12/01 05:33:02;;;;;;;21.65;12.45;;;-0.40;99.90;;;;;;5057471;28;20123;-63
2023/12/01 05:35:28;;;;;;;21.88;12.77;;;-0.40;99.90;;;;;;5056517;28;20416;-63
2023/12/01 05:37:56;;;;;;;18.73;12.07;;;-0.40;99.90;;;;;;5058837;28;20132;-65
2023/12/01 05:40:22;;;;;;;20.70;12.15;;;-0.40;99.90;;;;;;5060709;28;20110;-63
2023/12/01 05:42:49;;;;;;;21.35;12.23;;;-0.40;99.90;;;;;;5063041;28;20041;-64
2023/12/01 05:45:16;;;;;;;20.35;12.43;;;-0.40;99.90;;;;;;5058928;28;20495;-63
2023/12/01 05:47:42;;;;;;;22.35;13.27;;;-0.50;99.90;;;;;;5064775;28;20046;-64
2023/12/01 05:50:28;;;;;;;21.52;12.82;;;-0.40;99.90;;;;;;5067790;28;20523;-64
2023/12/01 05:52:56;;;;;;;22.60;13.15;;;-0.50;99.90;;;;;;5066634;28;20071;-62
2023/12/01 05:55:27;;;;;;;21.30;12.77;;;-0.50;99.90;;;;;;5062927;28;20387;-64
2023/12/01 05:58:10;;;;;;;22.50;12.57;;;-0.60;99.90;;;;;;5064553;28;20033;-64
2023/12/01 06:00:36;;;;;;;23.60;13.60;;;-0.60;99.90;;;;;;5083163;28;20148;-64
2023/12/01 06:03:07;;;;;;;21.25;12.27;;;-0.60;99.90;;;;;;5065250;28;20522;-64
2023/12/01 06:05:33;;;;;;;22.50;13.02;;;-0.60;99.90;;;;;;5069484;28;20048;-64
2023/12/01 06:08:00;;;;;;;22.55;13.15;;;-0.70;99.90;;;;;;5068748;28;20040;-64
2023/12/01 06:10:28;;;;;;;23.95;14.45;;;-0.70;99.90;;;;;;5051502;28;20146;-64
2023/12/01 06:12:54;;;;;;;21.05;12.75;;;-0.70;99.90;;;;;;5068900;28;20052;-64
2023/12/01 06:15:20;;;;;;;20.73;12.60;;;-0.70;99.90;;;;;;5065453;28;20049;-63
2023/12/01 06:17:50;;;;;;;21.55;13.13;;;-0.80;99.90;;;;;;5069306;28;20049;-64
2023/12/01 06:20:21;;;;;;;22.27;12.77;;;-0.80;99.90;;;;;;5059741;28;20071;-64
2023/12/01 06:22:49;;;;;;;22.48;12.82;;;-0.80;99.90;;;;;;5052146;28;20048;-64
2023/12/01 06:25:16;;;;;;;22.45;13.55;;;-0.90;99.90;;;;;;5050024;28;20044;-65
2023/12/01 06:27:42;;;;;;;22.25;12.48;;;-0.90;99.90;;;;;;5047644;28;20048;-64
2023/12/01 06:30:12;;;;;;;23.15;13.13;;;-0.90;99.90;;;;;;5043939;28;20093;-64
2023/12/01 06:32:42;;;;;;;21.67;12.18;;;-1.00;99.90;;;;;;5080651;28;20083;-64
2023/12/01 06:35:10;;;;;;;22.55;12.85;;;-1.00;99.90;;;;;;5049613;28;20041;-64
2023/12/01 06:37:37;;;;;;;21.98;12.93;;;-1.00;99.90;;;;;;5061591;28;20068;-64
2023/12/01 06:40:11;;;;;;;23.05;12.90;;;-1.00;99.90;;;;;;5051750;28;20079;-63
2023/12/01 06:42:40;;;;;;;22.50;12.73;;;-1.00;99.90;;;;;;5051898;28;20051;-65
2023/12/01 06:45:06;;;;;;;23.92;13.75;;;-1.00;99.90;;;;;;5078909;28;20037;-64
2023/12/01 06:47:32;;;;;;;24.60;13.45;;;-1.10;99.90;;;;;;5054644;28;20052;-64
2023/12/01 06:49:58;;;;;;;22.40;12.57;;;-1.10;99.90;;;;;;5057236;28;20056;-64
2023/12/01 06:52:24;;;;;;;24.75;13.35;;;-1.10;99.90;;;;;;5051933;28;20515;-64
2023/12/01 06:54:49;;;;;;;22.85;13.50;;;-1.10;99.90;;;;;;5052740;28;20056;-65
2023/12/01 06:57:15;;;;;;;23.17;13.25;;;-1.10;99.90;;;;;;5056760;28;20044;-64
2023/12/01 06:59:40;;;;;;;21.58;12.77;;;-1.10;99.90;;;;;;5051667;28;20064;-63
2023/12/01 07:02:06;;;;;;;22.17;13.02;;;-1.20;99.90;;;;;;5052298;28;20047;-64
2023/12/01 07:04:32;;;;;;;22.10;13.05;;;-1.20;99.90;;;;;;5049840;28;20528;-65
2023/12/01 07:07:00;;;;;;;23.17;12.98;;;-1.30;99.90;;;;;;5055217;28;20407;-65
2023/12/01 07:09:27;;;;;;;23.95;13.27;;;-1.30;99.90;;;;;;5051247;28;20036;-63
2023/12/01 07:11:53;;;;;;;22.65;12.82;;;-1.30;99.90;;;;;;5078876;28;20060;-64
2023/12/01 07:14:19;;;;;;;25.15;13.75;;;-1.40;99.90;;;;;;5052525;28;20082;-65
2023/12/01 07:16:45;;;;;;;24.23;12.88;;;-1.30;99.90;;;;;;5058678;28;20519;-63
2023/12/01 07:19:11;;;;;;;27.42;14.32;;;-1.30;99.90;;;;;;5055072;28;20048;-64
2023/12/01 07:21:38;;;;;;;25.90;14.13;;;-1.30;99.90;;;;;;5056041;28;20044;-64
2023/12/01 07:24:06;;;;;;;24.25;13.70;;;-1.40;99.90;;;;;;5054958;28;20052;-64
2023/12/01 07:26:33;;;;;;;30.20;16.00;;;-1.40;99.90;;;;;;5058449;28;20055;-64
2023/12/01 07:29:00;;;;;;;25.45;13.95;;;-1.50;99.90;;;;;;5056578;28;20053;-64
2023/12/01 07:31:26;;;;;;;26.13;14.57;;;-1.50;99.90;;;;;;5054098;28;20094;-64
2023/12/01 07:33:52;;;;;;;26.25;14.23;;;-1.50;99.90;;;;;;5053109;28;20544;-64
2023/12/01 07:36:18;;;;;;;26.70;14.65;;;-1.50;99.90;;;;;;5056567;28;20048;-64
2023/12/01 07:38:44;;;;;;;27.10;14.75;;;-1.50;99.90;;;;;;5035484;28;20059;-64
2023/12/01 07:41:12;;;;;;;29.63;16.15;;;-1.60;99.90;;;;;;5052839;28;20036;-64
2023/12/01 07:43:40;;;;;;;26.90;14.52;;;-1.60;99.90;;;;;;5052904;28;20059;-63
2023/12/01 07:46:06;;;;;;;29.33;15.18;;;-1.60;99.90;;;;;;5082818;28;20036;-63
2023/12/01 07:48:35;;;;;;;29.90;15.15;;;-1.60;99.90;;;;;;5052667;28;20419;-64
2023/12/01 07:51:02;;;;;;;31.05;15.27;;;-1.60;99.90;;;;;;5051556;28;20135;-63
2023/12/01 07:53:28;;;;;;;28.02;14.23;;;-1.60;99.90;;;;;;5080500;28;20059;-63
2023/12/01 07:55:53;;;;;;;30.20;15.45;;;-1.60;99.90;;;;;;5085479;28;20036;-63
2023/12/01 07:58:20;;;;;;;27.65;14.25;;;-1.60;99.90;;;;;;5082432;28;20044;-64
2023/12/01 08:00:46;;;;;;;28.98;14.93;;;-1.60;99.90;;;;;;5052272;28;20040;-63
2023/12/01 08:03:12;;;;;;;33.75;16.95;;;-1.50;99.90;;;;;;5053385;28;20098;-62
2023/12/01 08:05:39;;;;;;;31.52;16.40;;;-1.50;99.90;;;;;;5056819;28;20056;-62
2023/12/01 08:08:05;;;;;;;29.13;15.98;;;-1.50;99.90;;;;;;5053502;28;20045;-63
2023/12/01 08:10:31;;;;;;;31.40;15.13;;;-1.50;99.90;;;;;;5063759;28;20052;-63
2023/12/01 08:12:57;;;;;;;29.40;15.20;;;-1.50;99.90;;;;;;5099380;28;20052;-63
2023/12/01 08:15:24;;;;;;;32.70;15.98;;;-1.50;99.90;;;;;;5065025;28;20044;-63
2023/12/01 08:17:49;;;;;;;30.80;16.70;;;-1.40;99.90;;;;;;5063030;28;20056;-62
2023/12/01 08:20:16;;;;;;;33.50;16.80;;;-1.40;99.90;;;;;;5062588;28;20036;-63
2023/12/01 08:22:46;;;;;;;31.92;16.70;;;-1.40;99.90;;;;;;5068189;28;20067;-63
2023/12/01 08:25:15;;;;;;;35.13;17.40;;;-1.40;99.90;;;;;;5060242;28;20078;-64
2023/12/01 08:27:41;;;;;;;34.83;17.63;;;-1.30;99.90;;;;;;5056197;28;20059;-64
2023/12/01 08:30:08;;;;;;;34.70;16.80;;;-1.30;99.90;;;;;;5066022;28;20074;-63
2023/12/01 08:32:33;;;;;;;37.85;17.92;;;-1.30;99.90;;;;;;5067117;28;20051;-63
2023/12/01 08:34:59;;;;;;;30.05;15.68;;;-1.20;99.90;;;;;;5067810;28;20483;-64
2023/12/01 08:37:25;;;;;;;34.70;17.30;;;-1.20;99.90;;;;;;5070343;28;20035;-63
2023/12/01 08:39:51;;;;;;;31.98;17.02;;;-1.10;99.90;;;;;;5066685;28;20052;-63
2023/12/01 08:42:18;;;;;;;33.47;17.05;;;-1.20;99.90;;;;;;5069238;28;20047;-64
2023/12/01 08:44:44;;;;;;;31.35;15.82;;;-1.20;99.90;;;;;;5064925;28;20033;-64
2023/12/01 08:47:12;;;;;;;32.33;16.10;;;-1.10;99.90;;;;;;5063998;28;20441;-63
2023/12/01 08:49:38;;;;;;;34.50;16.77;;;-1.10;99.90;;;;;;5062277;28;20171;-65
2023/12/01 08:52:04;;;;;;;37.75;17.25;;;-1.10;99.90;;;;;;5062715;28;20059;-64
2023/12/01 08:54:29;;;;;;;32.22;15.63;;;-1.20;99.90;;;;;;5069260;28;20041;-63
2023/12/01 08:56:55;;;;;;;33.80;15.98;;;-1.10;99.90;;;;;;5069053;28;20124;-65
2023/12/01 08:59:21;;;;;;;32.15;16.00;;;-1.10;99.90;;;;;;5069391;28;20119;-64
2023/12/01 09:01:46;;;;;;;35.72;16.85;;;-1.10;99.90;;;;;;5067174;28;20116;-64
2023/12/01 09:04:12;;;;;;;30.35;16.45;;;-1.10;99.90;;;;;;5067831;28;20055;-64
2023/12/01 09:06:38;;;;;;;29.95;15.60;;;-1.00;99.90;;;;;;5069528;28;20033;-63
2023/12/01 09:09:04;;;;;;;31.55;15.77;;;-1.00;99.90;;;;;;5069255;28;20055;-64
2023/12/01 09:11:30;;;;;;;28.13;14.38;;;-0.80;99.90;;;;;;5068591;28;20135;-63
2023/12/01 09:13:56;;;;;;;29.33;14.75;;;-0.70;99.90;;;;;;5068463;28;20498;-64
2023/12/01 09:16:23;;;;;;;28.27;14.10;;;-0.50;99.90;;;;;;5066571;28;20364;-63
2023/12/01 09:18:50;;;;;;;29.33;14.80;;;-0.40;99.90;;;;;;5095235;28;20062;-64
2023/12/01 09:21:16;;;;;;;28.75;14.55;;;-0.30;99.90;;;;;;5059941;28;20417;-65
2023/12/01 09:23:41;;;;;;;26.85;14.63;;;-0.10;99.90;;;;;;5060417;28;20044;-65
2023/12/01 09:26:07;;;;;;;29.35;15.13;;;0.10;99.90;;;;;;5054582;28;20048;-64
2023/12/01 09:28:36;;;;;;;28.75;14.90;;;0.20;99.90;;;;;;5049921;28;20866;-64
2023/12/01 09:31:02;;;;;;;27.50;15.00;;;0.30;99.90;;;;;;5048743;28;20129;-64
2023/12/01 09:33:28;;;;;;;29.77;15.13;;;0.50;99.90;;;;;;5078053;28;20060;-63
2023/12/01 09:35:53;;;;;;;27.85;15.52;;;0.70;99.90;;;;;;5057431;28;20047;-63
2023/12/01 09:38:19;;;;;;;27.00;14.77;;;0.90;99.90;;;;;;5053343;28;20032;-63
2023/12/01 09:40:45;;;;;;;28.58;15.13;;;1.10;99.90;;;;;;5048362;28;20040;-63
2023/12/01 09:43:17;;;;;;;26.38;14.02;;;1.30;99.90;;;;;;5050680;28;20125;-63
2023/12/01 09:45:43;;;;;;;25.20;13.38;;;1.50;99.90;;;;;;5061579;28;20043;-64
2023/12/01 09:48:10;;;;;;;23.10;12.98;;;1.70;99.90;;;;;;5055478;28;20044;-64
2023/12/01 09:50:36;;;;;;;21.63;12.23;;;1.90;99.90;;;;;;5048095;28;20057;-64
2023/12/01 09:53:02;;;;;;;23.58;12.93;;;2.20;99.90;;;;;;5051372;28;20653;-65
2023/12/01 09:55:29;;;;;;;22.35;13.27;;;2.40;99.90;;;;;;5049146;28;20602;-63
2023/12/01 09:57:56;;;;;;;22.05;13.18;;;2.60;99.90;;;;;;5050806;28;20049;-65
2023/12/01 10:00:22;;;;;;;19.63;11.77;;;2.80;99.90;;;;;;5081766;28;20059;-66
2023/12/01 10:02:51;;;;;;;20.05;12.40;;;3.00;99.90;;;;;;5049029;28;20044;-65
2023/12/01 10:05:20;;;;;;;19.58;12.38;;;3.20;99.90;;;;;;5058956;28;20040;-64
2023/12/01 10:07:48;;;;;;;18.27;11.23;;;3.40;99.90;;;;;;5066453;28;20037;-64
2023/12/01 10:10:26;;;;;;;20.17;12.40;;;3.60;99.90;;;;;;5066184;28;20393;-65
2023/12/01 10:13:03;;;;;;;21.67;12.88;;;3.80;99.90;;;;;;5064680;28;20055;-64
2023/12/01 10:15:30;;;;;;;17.75;12.05;;;3.90;99.90;;;;;;5066108;28;20064;-64
2023/12/01 10:18:08;;;;;;;19.65;12.45;;;4.10;99.90;;;;;;5068358;28;20033;-65
2023/12/01 10:20:35;;;;;;;18.67;12.35;;;4.20;99.90;;;;;;5067804;28;20105;-65
2023/12/01 10:23:08;;;;;;;15.95;11.05;;;4.30;99.90;;;;;;5066892;28;20076;-64
2023/12/01 10:25:36;;;;;;;17.55;11.25;;;4.40;99.90;;;;;;5101183;28;20048;-63
2023/12/01 10:28:04;;;;;;;17.15;10.70;;;4.40;99.90;;;;;;5069544;28;20083;-63
2023/12/01 10:30:30;;;;;;;15.48;10.20;;;4.40;99.90;;;;;;5068141;28;20165;-65
2023/12/01 10:32:56;;;;;;;16.42;10.52;;;4.20;99.90;;;;;;5068573;28;20119;-65
2023/12/01 10:35:21;;;;;;;15.73;10.23;;;3.90;99.90;;;;;;5067915;28;20444;-63
2023/12/01 10:37:48;;;;;;;15.15;9.70;;;3.80;99.90;;;;;;5066893;28;20041;-63
2023/12/01 10:40:16;;;;;;;16.10;10.88;;;3.70;99.90;;;;;;5066063;28;20041;-64
2023/12/01 10:42:45;;;;;;;16.70;10.30;;;3.60;99.90;;;;;;5063230;28;20040;-63
2023/12/01 10:45:11;;;;;;;14.63;9.75;;;3.60;99.90;;;;;;5065805;28;20044;-64
2023/12/01 10:47:43;;;;;;;14.65;9.82;;;3.50;99.90;;;;;;5054669;28;20052;-65
2023/12/01 10:50:12;;;;;;;15.30;10.40;;;3.60;99.90;;;;;;5053672;28;20074;-65
2023/12/01 10:52:40;;;;;;;14.00;9.48;;;3.60;99.90;;;;;;5059358;28;20059;-65
2023/12/01 10:55:06;;;;;;;14.75;10.10;;;3.80;99.90;;;;;;5090437;28;20117;-64
2023/12/01 10:57:36;;;;;;;15.65;10.88;;;3.90;99.90;;;;;;5053835;28;20715;-63
2023/12/01 11:00:09;;;;;;;16.73;10.50;;;4.00;99.90;;;;;;5071270;28;20533;-65
2023/12/01 11:02:38;;;;;;;15.43;10.27;;;4.00;99.90;;;;;;5072212;28;20048;-64
2023/12/01 11:05:07;;;;;;;14.15;9.73;;;4.00;99.90;;;;;;5072031;28;20047;-64
2023/12/01 11:07:54;;;;;;;13.57;9.68;;;4.00;99.90;;;;;;5073494;28;20044;-64
2023/12/01 11:10:45;;;;;;;12.95;9.32;;;3.90;99.90;;;;;;5071506;28;20384;-65
2023/12/01 11:13:59;;;;;;;13.95;9.35;;;3.90;99.90;;;;;;5071346;28;20044;-63
2023/12/01 11:16:26;;;;;;;14.18;9.73;;;4.00;99.90;;;;;;5049672;28;20049;-63
2023/12/01 11:18:55;;;;;;;13.82;9.65;;;3.90;99.90;;;;;;5049575;28;20114;-64
2023/12/01 11:21:21;;;;;;;13.52;9.18;;;4.10;99.90;;;;;;5031970;28;20124;-65
2023/12/01 11:23:46;;;;;;;13.90;10.15;;;4.50;99.90;;;;;;5033477;28;20124;-64
2023/12/01 11:26:12;;;;;;;13.20;9.13;;;5.00;99.90;;;;;;5032893;28;20052;-63
2023/12/01 11:31:35;;;;;;;12.52;9.90;;;6.40;99.90;;;;;;5050442;28;20049;-66
2023/12/01 11:34:04;;;;;;;14.10;9.63;;;6.40;99.90;;;;;;5032680;28;20091;-64
2023/12/01 11:36:35;;;;;;;13.80;9.70;;;6.80;99.90;;;;;;5032436;28;20408;-64
2023/12/01 11:41:41;;;;;;;11.60;8.90;;;8.40;99.90;;;;;;5015816;28;20578;-65
2023/12/01 11:44:26;;;;;;;12.15;8.80;;;8.50;99.90;;;;;;5012507;28;20057;-65
2023/12/01 11:46:59;;;;;;;12.30;8.80;;;8.60;99.60;;;;;;5015985;28;20064;-65
2023/12/01 11:49:32;;;;;;;13.20;9.45;;;8.20;98.30;;;;;;5020464;28;20987;-64
2023/12/01 11:51:58;;;;;;;11.57;8.73;;;8.00;97.80;;;;;;5054773;28;20037;-66
2023/12/01 11:54:24;;;;;;;12.80;9.27;;;8.70;98.60;;;;;;5055947;28;22919;-65
2023/12/01 11:56:57;;;;;;;13.65;9.27;;;8.80;97.60;;;;;;5082257;28;20037;-64
2023/12/01 11:59:24;;;;;;;11.50;8.52;;;8.90;97.30;;;;;;5090095;28;21137;-66
2023/12/01 12:01:53;;;;;;;12.18;9.40;;;9.30;97.50;;;;;;5080522;28;20044;-66
2023/12/01 12:04:18;;;;;;;11.02;8.45;;;9.20;95.80;;;;;;5065846;28;20060;-63
2023/12/01 12:06:45;;;;;;;11.07;8.43;;;9.20;95.60;;;;;;5068365;28;20399;-63
2023/12/01 12:09:17;;;;;;;11.88;9.30;;;9.60;96.30;;;;;;5062541;28;20032;-63
2023/12/01 12:11:55;;;;;;;11.15;8.63;;;9.70;95.80;;;;;;5065294;28;20052;-61
2023/12/01 12:14:26;;;;;;;10.85;8.75;;;9.40;94.90;;;;;;5069504;28;20489;-62
2023/12/01 12:16:52;;;;;;;9.82;8.00;;;9.60;95.10;;;;;;5097997;28;20044;-61
2023/12/01 12:19:18;;;;;;;10.52;8.50;;;10.20;94.70;;;;;;5067550;28;20484;-62
2023/12/01 12:21:45;;;;;;;10.00;8.35;;;10.70;94.10;;;;;;5066487;28;20071;-63
2023/12/01 12:24:11;;;;;;;10.63;8.45;;;11.10;93.70;;;;;;5067383;28;20040;-61
2023/12/01 12:26:37;;;;;;;11.05;9.00;;;11.30;92.90;;;;;;5064687;28;20094;-62
2023/12/01 12:29:05;;;;;;;11.73;9.38;;;11.00;91.50;;;;;;5067804;28;20126;-62
2023/12/01 12:31:31;;;;;;;11.68;9.40;;;10.70;91.10;;;;;;5064456;28;20237;-62
2023/12/01 12:33:59;;;;;;;12.30;9.75;;;10.80;91.40;;;;;;5080543;28;20033;-62
2023/12/01 12:36:26;;;;;;;11.95;9.20;;;11.10;92.00;;;;;;5051348;28;20048;-61
2023/12/01 12:38:53;;;;;;;10.20;7.97;;;11.60;92.10;;;;;;5052946;28;20075;-60
2023/12/01 12:41:27;;;;;;;12.25;8.95;;;11.90;91.10;;;;;;5055010;28;20514;-61